Tin Ziren — 7THG — position and weather

sailwx.info

Track history (hours):
 
Tides and Currents Weather Stations Pressure Air Temp Water Temp Dewpoint Dewpoint Depression Visibility Wind Speed Wind Dir Waves Ship Positions

Tin Ziren

Last reported at 2018-Jun-24 02:20 UTC. Time now 2018-Jun-24 07:15 UTC.
Position N 36°43' E 001°20'.

Length 147 m; draft 6.5 m.

Type: Ship. MMSI: 605086070.

Date/timePositionNaut miles runAvg speedWind from/ knotsBaromVisibWave heightAir tempDewpointWater temp
2018-Jun-24 02:20N 36°43' E 001°20'513.7
2018-Jun-24 02:00N 36°44' E 001°25'714.0
2018-Jun-24 01:30N 36°45' E 001°34'714.4
2018-Jun-24 01:00N 36°46' E 001°43'714.4
2018-Jun-24 00:30N 36°48' E 001°51'2815.0
2018-Jun-23 22:38N 36°54' E 002°26'215.1
2018-Jun-23 22:30N 36°54' E 002°28'815.2
2018-Jun-23 21:59N 36°56' E 002°38'715.1
2018-Jun-23 21:30N 36°57' E 002°47'714.3
2018-Jun-23 21:00N 36°57' E 002°56'814.9
2018-Jun-23 20:30N 36°53' E 003°03'511.0
2018-Jun-23 20:00N 36°48' E 003°06'  
Track history (hours):
 
Tides and Currents Weather Stations Pressure Air Temp Water Temp Dewpoint Dewpoint Depression Visibility Wind Speed Wind Dir Waves Ship Positions

Tin Ziren

Last reported at 2018-Jun-24 02:20 UTC. Time now 2018-Jun-24 07:15 UTC.
Position N 36°43' E 001°20'.

Length 147 m; draft 6.5 m.

Type: Ship. MMSI: 605086070.

Date/timePositionNaut miles runAvg speedWind from/ knotsBaromVisibWave heightAir tempDewpointWater temp
2018-Jun-24 02:20N 36°43' E 001°20'513.7
2018-Jun-24 02:00N 36°44' E 001°25'714.0
2018-Jun-24 01:30N 36°45' E 001°34'714.4
2018-Jun-24 01:00N 36°46' E 001°43'714.4
2018-Jun-24 00:30N 36°48' E 001°51'2815.0
2018-Jun-23 22:38N 36°54' E 002°26'215.1
2018-Jun-23 22:30N 36°54' E 002°28'815.2
2018-Jun-23 21:59N 36°56' E 002°38'715.1
2018-Jun-23 21:30N 36°57' E 002°47'714.3
2018-Jun-23 21:00N 36°57' E 002°56'814.9
2018-Jun-23 20:30N 36°53' E 003°03'511.0
2018-Jun-23 20:00N 36°48' E 003°06'  

Dump ship's entire track history